createdAt,value
2018-11-03T00:04:48.333Z,5.75
2018-11-03T00:09:51.821Z,6.20
2018-11-03T00:14:55.302Z,9.00
2018-11-03T00:19:58.774Z,3.80
2018-11-03T00:25:02.384Z,4.20
2018-11-03T00:30:07.875Z,4.20
2018-11-03T00:35:11.477Z,4.40
2018-11-03T00:40:15.805Z,8.60
2018-11-03T00:45:19.282Z,5.00
2018-11-03T00:50:22.762Z,5.60
2018-11-03T00:55:26.243Z,7.00
2018-11-03T01:00:29.703Z,5.80
2018-11-03T01:05:33.195Z,5.00
2018-11-03T01:10:36.671Z,4.20
2018-11-03T01:15:40.133Z,4.75
2018-11-03T01:20:43.610Z,5.00
2018-11-03T01:25:47.110Z,3.00
2018-11-03T01:30:50.571Z,4.75
2018-11-03T01:35:54.050Z,6.00
2018-11-03T01:40:57.551Z,4.25
2018-11-03T01:46:01.018Z,4.00
2018-11-03T01:51:04.551Z,4.40
2018-11-03T01:56:08.042Z,4.00
2018-11-03T02:01:11.530Z,4.60
2018-11-03T02:06:15.007Z,4.00
2018-11-03T02:11:18.510Z,4.00
2018-11-03T02:16:22.013Z,4.50
2018-11-03T02:21:25.510Z,4.00
2018-11-03T02:26:28.973Z,4.00
2018-11-03T02:31:32.507Z,4.00
2018-11-03T02:36:36.004Z,4.80
2018-11-03T02:41:39.457Z,5.25
2018-11-03T02:46:42.918Z,6.20
2018-11-03T02:51:46.402Z,4.50
2018-11-03T02:56:49.861Z,5.00
2018-11-03T03:01:53.416Z,3.50
2018-11-03T03:06:56.859Z,3.00
2018-11-03T03:12:00.326Z,3.00
2018-11-03T03:17:03.878Z,4.75
2018-11-03T03:22:07.278Z,4.25
2018-11-03T03:27:10.746Z,4.00
2018-11-03T03:32:14.215Z,4.00
2018-11-03T03:37:17.725Z,2.25
2018-11-03T03:42:21.248Z,4.00
2018-11-03T03:47:24.764Z,3.80
2018-11-03T03:52:28.310Z,3.75
2018-11-03T03:57:31.942Z,3.60
2018-11-03T04:02:35.434Z,2.50
2018-11-03T04:07:39.223Z,4.80
2018-11-03T04:12:42.692Z,3.00
2018-11-03T04:17:46.191Z,2.75
2018-11-03T04:22:49.632Z,3.00
2018-11-03T04:27:53.067Z,3.20
2018-11-03T04:32:56.537Z,3.50
2018-11-03T04:37:59.992Z,2.80
2018-11-03T04:43:03.459Z,3.25
2018-11-03T04:48:06.921Z,3.80
2018-11-03T04:53:10.370Z,4.25
2018-11-03T04:58:13.845Z,4.25
2018-11-03T05:03:17.286Z,2.00
2018-11-03T05:08:20.764Z,3.60
2018-11-03T05:13:24.223Z,3.00
2018-11-03T05:18:27.664Z,2.75
2018-11-03T05:23:31.109Z,3.20
2018-11-03T05:28:34.566Z,5.75
2018-11-03T05:33:38.031Z,2.60
2018-11-03T05:38:41.491Z,2.00
2018-11-03T05:43:44.968Z,2.80
2018-11-03T05:48:48.430Z,1.50
2018-11-03T05:53:51.886Z,4.00
2018-11-03T05:58:55.374Z,2.50
2018-11-03T06:03:58.836Z,2.80
2018-11-03T06:09:02.469Z,3.50
2018-11-03T06:14:05.885Z,4.00
2018-11-03T06:19:09.762Z,1.75
2018-11-03T06:24:13.243Z,3.00
2018-11-03T06:29:16.714Z,1.20
2018-11-03T06:34:20.201Z,4.50
2018-11-03T06:39:23.640Z,1.50
2018-11-03T06:44:27.213Z,4.00
2018-11-03T06:49:30.759Z,1.50
2018-11-03T06:54:34.218Z,3.40
2018-11-03T06:59:37.836Z,4.40
2018-11-03T07:04:41.270Z,2.25
2018-11-03T07:09:44.734Z,6.00
2018-11-03T07:14:48.295Z,7.80
2018-11-03T07:19:51.755Z,10.40
2018-11-03T07:24:55.215Z,6.80
2018-11-03T07:29:58.768Z,8.80
2018-11-03T07:35:02.291Z,9.00
2018-11-03T07:40:07.374Z,11.60
2018-11-03T07:45:10.840Z,13.00
2018-11-03T07:50:14.304Z,9.60
2018-11-03T07:55:17.752Z,10.60
2018-11-03T08:00:21.302Z,10.60
2018-11-03T08:05:24.695Z,13.60
2018-11-03T08:10:28.154Z,7.25
2018-11-03T08:15:31.733Z,8.60
2018-11-03T08:20:35.077Z,11.50
2018-11-03T08:25:38.803Z,11.20
2018-11-03T08:30:42.248Z,10.20
2018-11-03T08:35:45.851Z,8.60
2018-11-03T08:40:49.331Z,9.20
2018-11-03T08:45:52.766Z,31.60
2018-11-03T08:50:56.220Z,25.25
2018-11-03T08:55:59.746Z,41.25
2018-11-03T09:01:03.240Z,23.00
2018-11-03T09:06:06.871Z,15.25
2018-11-03T09:11:10.318Z,13.75
2018-11-03T09:16:13.773Z,12.60
2018-11-03T09:21:17.245Z,13.50
2018-11-03T09:26:20.697Z,11.40
2018-11-03T09:31:24.144Z,9.25
2018-11-03T09:36:27.646Z,12.60
2018-11-03T09:41:31.116Z,9.80
2018-11-03T09:46:34.648Z,9.20
2018-11-03T09:51:38.193Z,11.20
2018-11-03T09:56:41.753Z,7.80
2018-11-03T10:01:45.381Z,8.20
2018-11-03T10:06:48.853Z,11.00
2018-11-03T10:11:52.312Z,7.75
2018-11-03T10:16:55.793Z,8.60
2018-11-03T10:21:59.279Z,8.00
2018-11-03T10:27:02.761Z,15.00
2018-11-03T10:32:06.530Z,17.75
2018-11-03T10:37:09.984Z,16.00
2018-11-03T10:42:13.529Z,18.20
2018-11-03T10:47:16.968Z,10.80
2018-11-03T10:52:20.478Z,13.00
2018-11-03T10:57:24.029Z,12.20
2018-11-03T11:02:32.843Z,12.75
2018-11-03T11:07:41.566Z,12.50
2018-11-03T11:12:47.055Z,8.40
2018-11-03T11:17:50.560Z,11.25
2018-11-03T11:22:54.102Z,13.40
2018-11-03T11:27:57.610Z,13.25
2018-11-03T11:33:01.155Z,15.00
2018-11-03T11:38:05.050Z,21.50
2018-11-03T11:43:09.554Z,23.75
2018-11-03T11:48:12.980Z,32.60
2018-11-03T11:53:16.488Z,31.00
2018-11-03T11:58:20.000Z,29.60
2018-11-03T12:03:23.460Z,27.25
2018-11-03T12:08:26.910Z,29.00
2018-11-03T12:13:30.398Z,31.50
2018-11-03T12:18:34.056Z,26.20
2018-11-03T12:51:52.927Z,20.00
2018-11-03T12:56:56.581Z,16.00
2018-11-03T13:02:00.214Z,15.50
2018-11-03T13:07:03.685Z,11.25
2018-11-03T13:12:07.195Z,13.50
2018-11-03T13:17:10.650Z,14.00
2018-11-03T13:22:14.090Z,10.00
2018-11-03T13:27:18.678Z,13.75
2018-11-03T13:32:22.204Z,10.40
2018-11-03T13:37:25.754Z,11.00
2018-11-03T13:42:29.946Z,9.50
2018-11-03T13:47:33.507Z,8.00
2018-11-03T13:52:37.031Z,7.00
2018-11-03T13:57:41.717Z,8.20
2018-11-03T14:02:46.150Z,8.50
2018-11-03T14:07:49.585Z,10.50
2018-11-03T14:12:53.084Z,14.00
2018-11-03T14:17:56.587Z,11.75
2018-11-03T14:23:00.035Z,11.60
2018-11-03T14:28:03.639Z,10.75
2018-11-03T14:33:07.237Z,9.75
2018-11-03T14:38:10.761Z,8.60
2018-11-03T14:43:14.395Z,15.60
2018-11-03T14:48:18.155Z,23.80
2018-11-03T14:53:21.654Z,23.00
2018-11-03T14:58:25.238Z,35.75
2018-11-03T15:03:28.867Z,34.75
2018-11-03T15:08:32.527Z,27.75
2018-11-03T15:13:36.059Z,25.40
2018-11-03T15:18:39.619Z,26.50
2018-11-03T15:23:43.088Z,22.60
2018-11-03T15:28:46.880Z,27.50
2018-11-03T15:33:50.407Z,23.50
2018-11-03T15:38:53.925Z,19.00
2018-11-03T15:43:57.396Z,19.00
2018-11-03T15:49:00.839Z,22.25
2018-11-03T15:54:04.306Z,17.20
2018-11-03T15:59:07.902Z,21.50
2018-11-03T16:04:11.417Z,18.20
2018-11-03T16:09:14.960Z,18.50
2018-11-03T16:14:18.421Z,13.25
2018-11-03T16:19:21.953Z,17.60
2018-11-03T16:24:25.536Z,18.60
2018-11-03T16:29:29.106Z,17.00
2018-11-03T16:34:32.707Z,12.00
2018-11-03T16:40:39.438Z,12.20
2018-11-03T16:45:43.341Z,16.20
2018-11-03T16:50:46.747Z,18.25
2018-11-03T16:55:50.234Z,12.60
2018-11-03T17:00:53.681Z,13.00
2018-11-03T17:05:57.166Z,11.20
2018-11-03T17:11:00.624Z,12.40
2018-11-03T17:16:04.081Z,12.00
2018-11-03T17:21:07.541Z,10.80
2018-11-03T17:26:11.002Z,11.50
2018-11-03T17:31:14.487Z,14.25
2018-11-03T17:36:18.011Z,12.75
2018-11-03T17:41:21.445Z,11.60
2018-11-03T17:46:24.902Z,11.00
2018-11-03T17:51:28.395Z,13.00
2018-11-03T17:56:31.871Z,12.20
2018-11-03T18:01:35.404Z,11.75
2018-11-03T18:06:38.839Z,9.00
2018-11-03T18:11:42.349Z,12.75
2018-11-03T18:16:45.883Z,11.40
2018-11-03T18:21:50.049Z,9.25
2018-11-03T18:26:53.550Z,11.25
2018-11-03T18:31:57.029Z,9.80
2018-11-03T18:37:00.491Z,8.75
2018-11-03T18:42:04.048Z,9.60
2018-11-03T18:47:07.606Z,7.25
2018-11-03T18:52:11.062Z,11.20
2018-11-03T18:57:14.534Z,7.25
2018-11-03T19:02:18.043Z,8.00
2018-11-03T19:07:21.461Z,8.00
2018-11-03T19:12:24.921Z,9.40
2018-11-03T19:17:28.369Z,10.50
2018-11-03T19:22:31.821Z,8.00
2018-11-03T19:27:35.257Z,10.00
2018-11-03T19:32:39.377Z,8.50
2018-11-03T19:37:42.996Z,10.80
2018-11-03T19:42:46.560Z,10.25
2018-11-03T19:47:50.172Z,9.80
2018-11-03T19:52:53.676Z,8.60
2018-11-03T19:57:57.166Z,9.00
2018-11-03T20:03:00.731Z,8.80
2018-11-03T20:08:04.316Z,10.00
2018-11-03T20:13:07.839Z,10.20
2018-11-03T20:18:11.300Z,8.00
2018-11-03T20:23:14.770Z,10.00
2018-11-03T20:28:18.224Z,10.00
2018-11-03T20:33:21.699Z,9.80
2018-11-03T20:38:25.174Z,12.50
2018-11-03T20:43:28.636Z,9.75
2018-11-03T20:48:32.102Z,8.75
2018-11-03T20:53:35.977Z,7.75
2018-11-03T20:58:39.462Z,8.50
2018-11-03T21:03:42.927Z,11.25
2018-11-03T21:08:46.402Z,8.40
2018-11-03T21:13:49.878Z,9.00
2018-11-03T21:18:53.446Z,8.60
2018-11-03T21:23:56.896Z,10.00
2018-11-03T21:29:00.311Z,9.25
2018-11-03T21:34:03.762Z,8.50
2018-11-03T21:39:09.089Z,8.80
2018-11-03T21:44:12.555Z,9.75
2018-11-03T21:49:16.331Z,6.40
2018-11-03T21:54:19.838Z,7.00
2018-11-03T21:59:23.281Z,6.00
2018-11-03T22:04:26.856Z,9.20
2018-11-03T22:09:30.493Z,6.00
2018-11-03T22:14:34.011Z,7.00
2018-11-03T22:19:37.471Z,7.00
2018-11-03T22:24:41.038Z,8.00
2018-11-03T22:29:44.510Z,6.75
2018-11-03T22:34:47.992Z,7.60
2018-11-03T22:39:51.479Z,6.75
2018-11-03T22:44:54.965Z,8.00
2018-11-03T22:49:58.439Z,8.00
2018-11-03T22:55:02.155Z,5.75
2018-11-03T23:00:08.102Z,5.60
2018-11-03T23:05:12.704Z,6.40
2018-11-03T23:10:16.250Z,7.80
2018-11-03T23:15:19.743Z,8.60
2018-11-03T23:20:23.301Z,8.20
2018-11-03T23:25:26.792Z,7.20
2018-11-03T23:30:31.763Z,4.25
2018-11-03T23:35:35.289Z,7.00
2018-11-03T23:40:38.927Z,7.00
2018-11-03T23:45:42.787Z,7.20
2018-11-03T23:50:46.462Z,8.00
2018-11-03T23:55:49.985Z,8.25
